Time;durP1;ratioP1;P1;durP2;ratioP2;P2;SDS_P1;SDS_P2;PMS_P1;PMS_P2;Temp;Humidity;BMP_temperature;BMP_pressure;BME280_temperature;BME280_humidity;BME280_pressure;Samples;Min_cycle;Max_cycle;Signal;HPM_P1;HPM_P2
2020/12/04 00:01:00;;;;;;;9.33;8.43;;;7.20;68.80;;;;;;5047504;28;21176;-49
2020/12/04 00:03:27;;;;;;;10.03;9.13;;;7.20;69.60;;;;;;5051849;28;20615;-49
2020/12/04 00:05:54;;;;;;;11.17;9.70;;;7.20;70.60;;;;;;5051307;28;20655;-49
2020/12/04 00:08:21;;;;;;;10.63;8.80;;;7.20;71.90;;;;;;5032637;28;20729;-49
2020/12/04 00:10:48;;;;;;;10.27;9.27;;;7.20;73.30;;;;;;5032464;28;20676;-50
2020/12/04 00:13:15;;;;;;;10.07;8.43;;;7.20;73.80;;;;;;5038056;28;20636;-51
2020/12/04 00:15:42;;;;;;;11.57;8.33;;;7.10;74.70;;;;;;5051878;28;20780;-51
2020/12/04 00:18:09;;;;;;;9.60;8.60;;;7.20;75.30;;;;;;5049926;28;21059;-50
2020/12/04 00:20:36;;;;;;;10.23;8.83;;;7.20;75.90;;;;;;5035464;28;20629;-50
2020/12/04 00:23:03;;;;;;;10.70;9.17;;;7.10;76.00;;;;;;5057795;28;20697;-51
2020/12/04 00:25:29;;;;;;;13.23;10.07;;;7.00;76.70;;;;;;5051327;28;21000;-50
2020/12/04 00:27:57;;;;;;;11.57;10.37;;;7.00;77.60;;;;;;5051945;28;20628;-51
2020/12/04 00:30:24;;;;;;;11.20;9.90;;;7.00;77.90;;;;;;5051005;28;21211;-50
2020/12/04 00:32:51;;;;;;;11.40;10.17;;;7.00;78.80;;;;;;5037948;28;20634;-51
2020/12/04 00:35:17;;;;;;;8.37;7.53;;;7.00;79.80;;;;;;5032189;28;20668;-50
2020/12/04 00:37:44;;;;;;;10.77;8.90;;;7.00;80.70;;;;;;5035406;28;20644;-51
2020/12/04 00:40:11;;;;;;;10.40;8.80;;;7.00;81.30;;;;;;5033056;28;20637;-51
2020/12/04 00:42:38;;;;;;;11.20;8.37;;;7.10;82.00;;;;;;5032034;28;20686;-51
2020/12/04 00:45:07;;;;;;;12.43;9.50;;;7.10;82.70;;;;;;5040071;28;21024;-51
2020/12/04 00:47:34;;;;;;;10.37;9.33;;;7.10;82.80;;;;;;5038097;28;20662;-51
2020/12/04 00:50:01;;;;;;;11.60;9.77;;;7.20;83.40;;;;;;5031789;28;20680;-51
2020/12/04 00:52:28;;;;;;;14.23;10.87;;;7.10;83.90;;;;;;5048370;28;20678;-51
2020/12/04 00:54:55;;;;;;;10.13;9.13;;;7.20;84.50;;;;;;5031694;28;20718;-49
2020/12/04 00:57:22;;;;;;;12.60;9.70;;;7.20;84.50;;;;;;5031262;28;20672;-50
2020/12/04 00:59:49;;;;;;;10.43;9.33;;;7.20;84.90;;;;;;5047616;28;20977;-50
2020/12/04 01:02:16;;;;;;;11.90;8.10;;;7.20;84.50;;;;;;5036988;28;20690;-51
2020/12/04 01:04:43;;;;;;;10.70;9.60;;;7.20;85.00;;;;;;5036873;28;21202;-51
2020/12/04 01:07:10;;;;;;;11.10;10.00;;;7.20;84.90;;;;;;5032235;28;21456;-51
2020/12/04 01:09:37;;;;;;;8.70;7.80;;;7.10;85.40;;;;;;5032094;28;20626;-52
2020/12/04 01:12:04;;;;;;;31.00;22.40;;;7.20;85.90;;;;;;5049992;28;21175;-52
2020/12/04 01:14:31;;;;;;;9.67;8.70;;;7.20;86.00;;;;;;5050048;28;21200;-52
2020/12/04 01:16:58;;;;;;;14.33;11.23;;;7.20;86.00;;;;;;5052136;28;20706;-52
2020/12/04 01:19:25;;;;;;;13.40;10.57;;;7.20;86.60;;;;;;5049474;28;20669;-51
2020/12/04 01:21:52;;;;;;;15.37;9.67;;;7.20;86.30;;;;;;5032694;28;20640;-52
2020/12/04 01:24:19;;;;;;;11.07;9.37;;;7.20;86.20;;;;;;5050962;28;20621;-52
2020/12/04 01:26:46;;;;;;;12.03;9.30;;;7.20;86.70;;;;;;5050741;28;20647;-52
2020/12/04 01:29:12;;;;;;;12.00;9.77;;;7.20;86.00;;;;;;5048059;28;20747;-51
2020/12/04 01:31:39;;;;;;;10.00;9.03;;;7.20;86.00;;;;;;5030765;28;20638;-52
2020/12/04 01:34:09;;;;;;;10.93;9.27;;;7.20;86.10;;;;;;5038363;28;20695;-52
2020/12/04 01:36:37;;;;;;;10.57;9.47;;;7.20;85.70;;;;;;5035064;28;20839;-52
2020/12/04 01:39:03;;;;;;;10.67;8.67;;;7.20;85.80;;;;;;5030763;28;20664;-51
2020/12/04 01:41:33;;;;;;;9.10;8.10;;;7.20;85.80;;;;;;5046976;28;20685;-52
2020/12/04 01:44:00;;;;;;;11.77;9.83;;;7.20;85.80;;;;;;5050224;28;20694;-52
2020/12/04 01:46:28;;;;;;;10.07;9.00;;;7.20;85.90;;;;;;5048872;28;20713;-52
2020/12/04 01:48:55;;;;;;;13.83;9.93;;;7.20;86.00;;;;;;5038297;28;20707;-50
2020/12/04 01:51:22;;;;;;;10.67;8.90;;;7.20;85.90;;;;;;5048645;28;20641;-51
2020/12/04 01:53:50;;;;;;;9.97;8.60;;;7.20;85.80;;;;;;5037696;28;20687;-50
2020/12/04 01:56:17;;;;;;;11.20;9.30;;;7.20;85.80;;;;;;5030275;28;20808;-51
2020/12/04 01:58:44;;;;;;;11.30;9.80;;;7.30;85.80;;;;;;5048747;28;20664;-50
2020/12/04 02:01:12;;;;;;;12.20;8.60;;;7.30;85.80;;;;;;5041102;28;20702;-52
2020/12/04 02:03:40;;;;;;;10.17;9.00;;;7.30;85.50;;;;;;5039448;28;20636;-50
2020/12/04 02:06:09;;;;;;;8.83;7.67;;;7.30;85.30;;;;;;5049643;28;20684;-51
2020/12/04 02:08:38;;;;;;;10.13;8.57;;;7.30;85.40;;;;;;5033194;28;20716;-50
2020/12/04 02:11:15;;;;;;;9.20;8.30;;;7.30;86.20;;;;;;5046698;28;20618;-49
2020/12/04 02:13:45;;;;;;;9.33;8.43;;;7.30;85.30;;;;;;5048847;28;20621;-51
2020/12/04 02:16:13;;;;;;;7.50;6.67;;;7.30;85.20;;;;;;5049702;28;20663;-52
2020/12/04 02:18:40;;;;;;;8.73;7.27;;;7.30;84.80;;;;;;5050032;28;20697;-52
2020/12/04 02:21:08;;;;;;;8.83;8.03;;;7.30;84.70;;;;;;5034463;28;21006;-52
2020/12/04 02:23:34;;;;;;;9.23;8.00;;;7.40;85.00;;;;;;5049881;28;20639;-53
2020/12/04 02:26:01;;;;;;;9.17;8.13;;;7.40;84.90;;;;;;5044720;28;20695;-53
2020/12/04 02:28:32;;;;;;;8.47;7.37;;;7.40;84.90;;;;;;5049824;28;20631;-53
2020/12/04 02:30:59;;;;;;;11.80;9.73;;;7.50;84.80;;;;;;5046405;28;20628;-53
2020/12/04 02:33:26;;;;;;;9.53;7.60;;;7.50;84.40;;;;;;5029743;28;20665;-53
2020/12/04 02:35:53;;;;;;;8.17;7.30;;;7.50;84.00;;;;;;5035976;28;20660;-53
2020/12/04 02:38:21;;;;;;;9.30;7.30;;;7.50;83.40;;;;;;5049198;28;20671;-51
2020/12/04 02:40:48;;;;;;;8.20;7.13;;;7.60;83.40;;;;;;5032581;28;20806;-52
2020/12/04 02:43:15;;;;;;;8.27;7.37;;;7.60;83.40;;;;;;5029372;28;20993;-50
2020/12/04 02:45:43;;;;;;;7.73;6.90;;;7.60;83.60;;;;;;5029627;28;20648;-51
2020/12/04 02:48:09;;;;;;;7.80;7.00;;;7.70;83.90;;;;;;5041574;28;21186;-50
2020/12/04 02:50:36;;;;;;;11.37;7.03;;;7.70;83.80;;;;;;5048010;28;20691;-51
2020/12/04 02:53:03;;;;;;;6.57;5.87;;;7.80;83.40;;;;;;5035532;28;20637;-51
2020/12/04 02:55:31;;;;;;;7.60;6.30;;;7.80;84.10;;;;;;5049019;28;20691;-51
2020/12/04 02:57:58;;;;;;;6.90;6.20;;;7.90;83.40;;;;;;5048822;28;20641;-51
2020/12/04 03:00:25;;;;;;;7.57;6.00;;;7.90;83.30;;;;;;5047590;28;20946;-50
2020/12/04 03:02:52;;;;;;;6.83;5.27;;;8.00;83.30;;;;;;5049089;28;20629;-50
2020/12/04 03:05:18;;;;;;;5.63;5.03;;;8.10;83.30;;;;;;5034635;28;21029;-50
2020/12/04 03:07:45;;;;;;;5.03;4.43;;;8.10;83.20;;;;;;5028559;28;20634;-51
2020/12/04 03:10:12;;;;;;;5.67;5.27;;;8.10;83.40;;;;;;5029603;28;20703;-51
2020/12/04 03:12:40;;;;;;;5.00;4.50;;;8.20;84.00;;;;;;5029377;28;20694;-49
2020/12/04 03:15:07;;;;;;;3.97;3.57;;;8.20;83.70;;;;;;5029018;28;20634;-52
2020/12/04 03:17:34;;;;;;;3.47;3.10;;;8.30;83.60;;;;;;5030724;28;20666;-52
2020/12/04 03:20:00;;;;;;;4.93;4.00;;;8.30;83.60;;;;;;5049445;28;20624;-51
2020/12/04 03:22:27;;;;;;;3.30;3.00;;;8.40;83.70;;;;;;5042875;28;20630;-53
2020/12/04 03:24:54;;;;;;;4.03;3.10;;;8.50;83.10;;;;;;5049089;28;20634;-53
2020/12/04 03:27:21;;;;;;;3.40;2.17;;;8.60;83.80;;;;;;5049105;28;20648;-51
2020/12/04 03:29:48;;;;;;;3.87;3.27;;;8.60;84.10;;;;;;5051952;28;20641;-54
2020/12/04 03:32:15;;;;;;;3.77;3.23;;;8.60;83.90;;;;;;5036298;28;20622;-54
2020/12/04 03:34:42;;;;;;;3.17;2.43;;;8.70;84.90;;;;;;5032913;28;20982;-53
2020/12/04 03:37:09;;;;;;;2.93;2.57;;;8.60;85.10;;;;;;5033153;28;20679;-51
2020/12/04 03:39:36;;;;;;;4.03;2.57;;;8.60;85.50;;;;;;5033214;28;20682;-53
2020/12/04 03:42:03;;;;;;;2.67;1.97;;;8.60;86.20;;;;;;5048211;28;20670;-53
2020/12/04 03:44:29;;;;;;;3.00;2.47;;;8.70;86.40;;;;;;5052898;28;20629;-52
2020/12/04 03:46:57;;;;;;;1.70;1.60;;;8.70;87.10;;;;;;5052453;28;20718;-50
2020/12/04 03:49:24;;;;;;;2.37;1.80;;;8.60;87.20;;;;;;5044810;28;20696;-49
2020/12/04 03:51:51;;;;;;;2.47;2.27;;;8.70;87.70;;;;;;5052851;28;20634;-49
2020/12/04 03:54:18;;;;;;;3.13;2.20;;;8.70;88.10;;;;;;5052317;28;20632;-50
2020/12/04 03:56:45;;;;;;;2.70;2.50;;;8.70;88.50;;;;;;5046014;28;21080;-50
2020/12/04 03:59:12;;;;;;;2.30;2.13;;;8.70;90.10;;;;;;5032704;28;20626;-50
2020/12/04 04:01:38;;;;;;;2.23;2.03;;;8.70;90.00;;;;;;5046923;28;20638;-49
2020/12/04 04:04:06;;;;;;;2.50;2.30;;;8.60;89.20;;;;;;5044249;28;20680;-50
2020/12/04 04:06:33;;;;;;;3.23;2.40;;;8.60;88.70;;;;;;5033557;28;20697;-48
2020/12/04 04:09:00;;;;;;;1.90;1.80;;;8.60;89.10;;;;;;5032090;28;20715;-49
2020/12/04 04:11:26;;;;;;;3.60;2.00;;;8.60;88.40;;;;;;5045232;28;20676;-52
2020/12/04 04:13:53;;;;;;;2.17;1.80;;;8.70;88.70;;;;;;5037819;28;20634;-52
2020/12/04 04:16:20;;;;;;;2.40;1.77;;;8.60;88.60;;;;;;5033661;28;20731;-52
2020/12/04 04:18:47;;;;;;;3.50;3.20;;;8.70;88.60;;;;;;5051511;28;20985;-52
2020/12/04 04:21:14;;;;;;;2.30;2.10;;;8.70;88.00;;;;;;5052173;28;20710;-50
2020/12/04 04:23:41;;;;;;;2.70;2.20;;;8.70;87.80;;;;;;5052269;28;20992;-50
2020/12/04 04:26:08;;;;;;;4.30;2.10;;;8.70;87.70;;;;;;5052352;28;20642;-49
2020/12/04 04:28:35;;;;;;;2.70;2.37;;;8.80;87.80;;;;;;5051751;28;20692;-50
2020/12/04 04:31:02;;;;;;;2.17;1.90;;;8.80;87.50;;;;;;5037782;28;20634;-49
2020/12/04 04:33:29;;;;;;;3.27;2.50;;;8.80;86.90;;;;;;5040815;28;20638;-49
2020/12/04 04:35:55;;;;;;;2.47;2.30;;;8.90;86.40;;;;;;5031741;28;20720;-50
2020/12/04 04:38:23;;;;;;;2.97;2.30;;;8.90;85.40;;;;;;5036577;28;20626;-50
2020/12/04 04:40:56;;;;;;;1.97;1.77;;;8.90;84.90;;;;;;5051763;28;21185;-53
2020/12/04 04:43:23;;;;;;;2.43;2.10;;;8.90;83.90;;;;;;5042893;28;20654;-52
2020/12/04 04:45:50;;;;;;;2.37;2.10;;;9.00;83.90;;;;;;5034862;28;20653;-53
2020/12/04 04:48:18;;;;;;;2.30;1.53;;;9.00;83.90;;;;;;5040974;28;21046;-53
2020/12/04 04:50:45;;;;;;;2.83;1.90;;;9.00;83.10;;;;;;5050499;28;20657;-53
2020/12/04 04:53:12;;;;;;;2.03;1.77;;;9.00;82.70;;;;;;5042077;28;20689;-52
2020/12/04 04:55:41;;;;;;;1.73;1.50;;;9.00;83.40;;;;;;5049818;28;20658;-53
2020/12/04 04:58:07;;;;;;;2.23;2.03;;;9.10;82.80;;;;;;5046276;28;20638;-52
2020/12/04 05:00:34;;;;;;;2.07;1.93;;;9.10;82.80;;;;;;5046776;28;21113;-53
2020/12/04 05:03:03;;;;;;;2.73;2.00;;;9.20;82.90;;;;;;5038168;28;20634;-49
2020/12/04 05:05:46;;;;;;;2.03;1.13;;;9.10;82.50;;;;;;5051584;28;20625;-50
2020/12/04 05:08:16;;;;;;;1.90;1.70;;;9.20;82.50;;;;;;5035460;28;20682;-50
2020/12/04 05:10:44;;;;;;;2.20;1.57;;;9.20;82.40;;;;;;5040387;28;20634;-50
2020/12/04 05:13:10;;;;;;;1.50;1.40;;;9.20;82.50;;;;;;5048396;28;20626;-50
2020/12/04 05:15:37;;;;;;;1.50;1.40;;;9.30;82.20;;;;;;5030719;28;20711;-50
2020/12/04 05:18:06;;;;;;;1.93;1.60;;;9.30;82.00;;;;;;5037180;28;20641;-51
2020/12/04 05:20:37;;;;;;;1.67;1.57;;;9.30;81.80;;;;;;5040609;28;20625;-51
2020/12/04 05:23:04;;;;;;;2.80;2.03;;;9.30;80.90;;;;;;5050517;28;20630;-50
2020/12/04 05:25:34;;;;;;;4.30;3.63;;;9.30;81.50;;;;;;5035627;28;20710;-51
2020/12/04 05:28:13;;;;;;;1.93;1.80;;;9.30;81.80;;;;;;5038059;28;20682;-50
2020/12/04 05:30:41;;;;;;;2.80;2.47;;;9.30;82.10;;;;;;5044654;28;20637;-50
2020/12/04 05:33:08;;;;;;;3.10;2.53;;;9.30;82.10;;;;;;5033805;28;20619;-50
2020/12/04 05:35:35;;;;;;;3.70;2.60;;;9.20;82.00;;;;;;5041690;28;20635;-49
2020/12/04 05:38:15;;;;;;;3.10;2.77;;;9.10;82.40;;;;;;5037031;28;20665;-49
2020/12/04 05:40:42;;;;;;;2.80;2.60;;;9.10;82.70;;;;;;5032773;28;21073;-53
2020/12/04 05:43:09;;;;;;;3.03;2.70;;;9.00;82.60;;;;;;5050396;28;21041;-52
2020/12/04 05:45:37;;;;;;;2.10;1.77;;;9.00;82.60;;;;;;5045249;28;21166;-53
2020/12/04 05:48:12;;;;;;;3.13;2.73;;;9.00;82.40;;;;;;5042544;28;20657;-53
2020/12/04 05:50:40;;;;;;;3.03;2.73;;;9.00;81.80;;;;;;5049065;28;20656;-49
2020/12/04 05:53:08;;;;;;;2.37;2.17;;;9.00;82.10;;;;;;5050362;28;20695;-50
2020/12/04 05:55:35;;;;;;;2.30;2.00;;;9.10;81.90;;;;;;5050529;28;20692;-50
2020/12/04 05:58:02;;;;;;;1.93;1.73;;;9.20;81.60;;;;;;5049237;28;21064;-52
2020/12/04 06:00:29;;;;;;;1.87;1.70;;;9.30;80.20;;;;;;5039578;28;20623;-50
2020/12/04 06:02:57;;;;;;;1.27;1.17;;;9.30;79.20;;;;;;5038440;28;20976;-52
2020/12/04 06:05:25;;;;;;;3.30;2.23;;;9.40;78.20;;;;;;5050637;28;20626;-53
2020/12/04 06:07:51;;;;;;;2.70;2.27;;;9.40;78.30;;;;;;5049828;28;20626;-52
2020/12/04 06:10:18;;;;;;;2.77;2.33;;;9.50;78.60;;;;;;5048886;28;20730;-53
2020/12/04 06:12:51;;;;;;;4.80;2.43;;;9.40;78.20;;;;;;5032366;28;20991;-51
2020/12/04 06:15:21;;;;;;;2.47;1.70;;;9.40;78.80;;;;;;5030348;28;20689;-50
2020/12/04 06:17:48;;;;;;;1.73;1.27;;;9.40;79.00;;;;;;5032950;28;20692;-49
2020/12/04 06:20:20;;;;;;;1.80;1.70;;;9.50;79.20;;;;;;5050145;28;20695;-52
2020/12/04 06:23:12;;;;;;;2.30;1.80;;;9.50;79.70;;;;;;5047004;28;20952;-51
2020/12/04 06:26:02;;;;;;;2.47;2.10;;;9.50;80.30;;;;;;5044181;28;20730;-53
2020/12/04 06:28:30;;;;;;;3.00;2.00;;;9.50;81.10;;;;;;5038914;28;20619;-54
2020/12/04 06:30:58;;;;;;;1.80;1.40;;;9.40;81.90;;;;;;5029769;28;20677;-54
2020/12/04 06:33:36;;;;;;;2.40;2.20;;;9.40;82.40;;;;;;5040558;28;20706;-53
2020/12/04 06:36:05;;;;;;;1.60;1.50;;;9.40;83.00;;;;;;5030440;28;20655;-52
2020/12/04 06:38:42;;;;;;;3.90;2.00;;;9.40;84.00;;;;;;5029591;28;20693;-50
2020/12/04 06:41:28;;;;;;;2.30;2.03;;;9.40;85.30;;;;;;5031281;28;20623;-53
2020/12/04 06:43:57;;;;;;;2.40;1.60;;;9.40;85.70;;;;;;5037903;28;20750;-53
2020/12/04 06:46:28;;;;;;;1.80;1.70;;;9.30;87.00;;;;;;5030733;28;20716;-52
2020/12/04 06:49:36;;;;;;;2.47;1.33;;;9.30;87.60;;;;;;5042117;28;20641;-53
2020/12/04 06:52:06;;;;;;;2.10;1.90;;;9.30;87.70;;;;;;4969077;28;20744;-54
2020/12/04 06:54:34;;;;;;;2.90;2.20;;;9.30;88.20;;;;;;5038463;28;20763;-54
2020/12/04 06:57:01;;;;;;;3.57;2.20;;;9.30;88.30;;;;;;5033160;28;20723;-54
2020/12/04 06:59:29;;;;;;;2.27;1.80;;;9.30;88.40;;;;;;5029815;28;20702;-54
2020/12/04 07:02:03;;;;;;;2.50;2.30;;;9.20;88.20;;;;;;5031063;28;20634;-54
2020/12/04 07:04:30;;;;;;;2.40;2.20;;;9.20;88.40;;;;;;5029499;28;20626;-54
2020/12/04 07:07:05;;;;;;;2.27;2.07;;;9.20;88.30;;;;;;5029379;28;20662;-54
2020/12/04 07:09:32;;;;;;;3.00;2.70;;;9.20;87.90;;;;;;5048433;28;20693;-51
2020/12/04 07:12:00;;;;;;;4.40;2.70;;;9.10;87.50;;;;;;5040452;28;20630;-50
2020/12/04 07:14:27;;;;;;;3.17;2.40;;;9.10;87.60;;;;;;5029741;28;20635;-50
2020/12/04 07:16:54;;;;;;;2.73;2.33;;;9.10;87.30;;;;;;5034730;28;20716;-51
2020/12/04 07:19:21;;;;;;;3.50;2.70;;;9.00;87.30;;;;;;5045627;28;20634;-52
2020/12/04 07:21:48;;;;;;;2.80;2.50;;;9.00;87.40;;;;;;5049571;28;20627;-51
2020/12/04 07:24:15;;;;;;;2.17;2.07;;;9.00;87.70;;;;;;5036786;28;20697;-51
2020/12/04 07:26:49;;;;;;;3.70;2.70;;;9.00;88.00;;;;;;5029755;28;20786;-52
2020/12/04 07:29:16;;;;;;;2.10;1.90;;;8.90;88.00;;;;;;5043591;28;20664;-52
2020/12/04 07:31:45;;;;;;;2.90;2.40;;;9.00;88.10;;;;;;5038605;28;20635;-51
2020/12/04 07:34:12;;;;;;;2.80;2.40;;;9.00;88.10;;;;;;5039205;28;20987;-52
2020/12/04 07:36:47;;;;;;;2.90;2.50;;;9.00;87.70;;;;;;5041217;28;20692;-51
2020/12/04 07:39:20;;;;;;;2.83;2.50;;;9.00;87.80;;;;;;5042871;28;20621;-49
2020/12/04 07:41:47;;;;;;;3.27;2.57;;;9.10;87.40;;;;;;5043126;28;20641;-53
2020/12/04 07:44:14;;;;;;;3.63;3.10;;;9.10;87.10;;;;;;5035785;28;20654;-55
2020/12/04 07:46:41;;;;;;;10.80;2.83;;;9.10;86.90;;;;;;5029520;28;20657;-49
2020/12/04 07:49:08;;;;;;;7.70;3.50;;;9.10;86.80;;;;;;5043390;28;21154;-54
2020/12/04 07:51:37;;;;;;;2.77;2.47;;;9.10;86.80;;;;;;5036371;28;21111;-54
2020/12/04 07:54:05;;;;;;;4.10;2.63;;;9.10;86.70;;;;;;5038402;28;21009;-53
2020/12/04 07:56:33;;;;;;;3.63;2.60;;;9.10;86.50;;;;;;5039646;28;21006;-54
2020/12/04 07:59:03;;;;;;;2.90;2.70;;;9.10;86.50;;;;;;5038783;28;20688;-54
2020/12/04 08:01:31;;;;;;;3.23;2.93;;;9.10;85.80;;;;;;5046962;28;20644;-54
2020/12/04 08:03:57;;;;;;;2.80;2.53;;;9.10;85.40;;;;;;5049706;28;20676;-53
2020/12/04 08:06:25;;;;;;;3.33;3.00;;;9.10;85.80;;;;;;5047021;28;20724;-50
2020/12/04 08:09:07;;;;;;;4.33;3.07;;;9.10;86.20;;;;;;5048149;28;20752;-51
2020/12/04 08:11:37;;;;;;;3.63;3.33;;;9.10;86.20;;;;;;5046087;28;20662;-50
2020/12/04 08:14:04;;;;;;;4.97;3.80;;;9.10;86.50;;;;;;5048641;28;20684;-50
2020/12/04 08:16:32;;;;;;;3.73;2.80;;;9.10;86.10;;;;;;5047956;28;20666;-51
2020/12/04 08:19:10;;;;;;;3.60;2.80;;;9.00;85.70;;;;;;5048971;28;20638;-50
2020/12/04 08:21:36;;;;;;;3.10;2.70;;;9.00;86.00;;;;;;5050522;28;20687;-50
2020/12/04 08:24:04;;;;;;;3.93;3.60;;;8.90;85.80;;;;;;5049266;28;20613;-52
2020/12/04 08:26:33;;;;;;;10.93;3.23;;;8.90;85.60;;;;;;5040593;28;21471;-53
2020/12/04 08:29:03;;;;;;;3.50;2.90;;;9.00;85.40;;;;;;5042646;28;20643;-51
2020/12/04 08:31:30;;;;;;;3.30;2.30;;;9.00;85.30;;;;;;5043170;28;20641;-51
2020/12/04 08:34:02;;;;;;;3.40;3.03;;;9.00;85.00;;;;;;5044064;28;21472;-51
2020/12/04 08:36:30;;;;;;;3.50;3.20;;;9.00;84.40;;;;;;5042878;28;21020;-51
2020/12/04 08:38:57;;;;;;;3.40;2.97;;;9.00;85.30;;;;;;5042178;28;20739;-52
2020/12/04 08:41:35;;;;;;;2.30;2.03;;;9.10;84.60;;;;;;5041883;28;21463;-51
2020/12/04 08:44:06;;;;;;;3.87;3.37;;;9.20;84.40;;;;;;5034615;28;20623;-52
2020/12/04 08:46:36;;;;;;;2.07;1.87;;;9.30;83.80;;;;;;5041445;28;20650;-52
2020/12/04 08:49:04;;;;;;;1.87;1.60;;;9.40;83.60;;;;;;5051832;28;20707;-52
2020/12/04 08:51:31;;;;;;;1.77;1.67;;;9.50;82.60;;;;;;5051653;28;20667;-52
2020/12/04 08:53:58;;;;;;;2.10;1.93;;;9.60;82.60;;;;;;5051813;28;20629;-52
2020/12/04 08:56:25;;;;;;;5.97;2.60;;;9.70;81.30;;;;;;5052032;28;20645;-53
2020/12/04 08:58:51;;;;;;;3.83;2.70;;;9.70;80.80;;;;;;5051657;28;20655;-52
2020/12/04 09:01:20;;;;;;;2.50;2.30;;;9.70;80.60;;;;;;5067919;28;20732;-50
2020/12/04 09:03:47;;;;;;;3.87;3.50;;;9.70;80.90;;;;;;5072089;28;20625;-50
2020/12/04 09:06:14;;;;;;;3.30;3.00;;;9.70;80.90;;;;;;5071339;28;20656;-52
2020/12/04 09:08:41;;;;;;;3.80;3.40;;;9.70;81.70;;;;;;5071281;28;20629;-50
2020/12/04 09:11:08;;;;;;;3.97;3.47;;;9.60;81.30;;;;;;5069797;28;20640;-51
2020/12/04 09:13:35;;;;;;;4.33;3.87;;;9.60;81.40;;;;;;5070988;28;20991;-50
2020/12/04 09:16:01;;;;;;;2.83;2.53;;;9.60;81.40;;;;;;5070922;28;21062;-51
2020/12/04 09:18:29;;;;;;;4.20;3.53;;;9.70;81.50;;;;;;5071459;28;21232;-49
2020/12/04 09:20:56;;;;;;;3.13;2.37;;;9.70;81.20;;;;;;5071001;28;20624;-48
2020/12/04 09:23:23;;;;;;;2.67;2.47;;;9.70;80.90;;;;;;5071381;28;21146;-50
2020/12/04 09:25:50;;;;;;;2.63;2.40;;;9.90;81.00;;;;;;5071688;28;20660;-50
2020/12/04 09:28:17;;;;;;;2.80;2.60;;;10.00;79.30;;;;;;5071243;28;20630;-49
2020/12/04 09:30:44;;;;;;;3.87;3.37;;;10.00;78.40;;;;;;5070917;28;20697;-51
2020/12/04 09:33:13;;;;;;;4.37;3.20;;;10.10;78.30;;;;;;5072548;28;20602;-49
2020/12/04 09:35:40;;;;;;;4.23;3.83;;;10.20;78.20;;;;;;5072637;28;20702;-50
2020/12/04 09:38:07;;;;;;;3.10;2.63;;;10.30;77.80;;;;;;5072278;28;20683;-50
2020/12/04 09:40:34;;;;;;;3.23;2.93;;;10.40;76.90;;;;;;5070930;28;21261;-49
2020/12/04 09:43:01;;;;;;;11.27;2.80;;;10.50;76.70;;;;;;5070783;28;20637;-50
2020/12/04 09:45:29;;;;;;;3.03;2.83;;;10.50;76.10;;;;;;5070626;28;20628;-51
2020/12/04 09:47:56;;;;;;;4.27;2.80;;;10.50;75.60;;;;;;5070843;28;21288;-54
2020/12/04 09:50:23;;;;;;;3.40;3.10;;;10.60;75.70;;;;;;5070789;28;20658;-53
2020/12/04 09:52:51;;;;;;;2.40;2.13;;;10.50;74.80;;;;;;5071000;28;20617;-54
2020/12/04 09:55:18;;;;;;;3.00;2.63;;;10.50;74.20;;;;;;5070869;28;20694;-52
2020/12/04 09:57:45;;;;;;;10.03;3.77;;;10.50;74.50;;;;;;5070383;28;20726;-52
2020/12/04 10:00:12;;;;;;;2.70;2.47;;;10.60;74.20;;;;;;5065901;28;20710;-50
2020/12/04 10:02:38;;;;;;;3.60;3.30;;;10.60;73.60;;;;;;5030293;28;20668;-51
2020/12/04 10:05:05;;;;;;;3.43;3.13;;;10.60;73.20;;;;;;5030984;28;20693;-49
2020/12/04 10:07:32;;;;;;;3.00;2.80;;;10.60;72.90;;;;;;5030352;28;20717;-53
2020/12/04 10:10:00;;;;;;;3.00;2.70;;;10.60;72.60;;;;;;5030518;28;20631;-54
2020/12/04 10:12:27;;;;;;;2.90;2.60;;;10.70;72.70;;;;;;5030548;28;20914;-54
2020/12/04 10:14:54;;;;;;;2.87;2.27;;;10.70;72.30;;;;;;5030092;28;20688;-54
2020/12/04 10:17:21;;;;;;;3.47;2.67;;;10.80;72.90;;;;;;5030124;28;20772;-54
2020/12/04 10:19:47;;;;;;;5.97;3.17;;;10.80;72.60;;;;;;5030850;28;20619;-54
2020/12/04 10:22:14;;;;;;;6.80;2.40;;;10.80;72.20;;;;;;5030137;28;20650;-52
2020/12/04 10:24:41;;;;;;;3.33;3.03;;;10.90;72.10;;;;;;5030349;28;21187;-53
2020/12/04 10:27:09;;;;;;;4.10;3.70;;;10.90;72.20;;;;;;5029992;28;20728;-54
2020/12/04 10:29:36;;;;;;;2.50;2.23;;;10.90;71.80;;;;;;5032929;28;20701;-54
2020/12/04 10:32:03;;;;;;;2.57;2.37;;;10.90;71.60;;;;;;5050025;28;20913;-53
2020/12/04 10:34:30;;;;;;;2.90;2.60;;;10.90;71.70;;;;;;5050930;28;20629;-52
2020/12/04 10:36:56;;;;;;;2.77;2.57;;;10.90;71.60;;;;;;5068541;28;21241;-52
2020/12/04 10:39:23;;;;;;;4.40;2.20;;;11.00;71.10;;;;;;5069831;28;21035;-52
2020/12/04 10:41:50;;;;;;;2.67;2.23;;;11.00;71.00;;;;;;5069665;28;20632;-51
2020/12/04 10:44:21;;;;;;;2.70;2.23;;;11.00;70.90;;;;;;5069750;28;20686;-52
2020/12/04 10:46:48;;;;;;;3.10;2.53;;;11.00;71.70;;;;;;5069161;28;21023;-52
2020/12/04 10:49:14;;;;;;;2.13;1.93;;;11.00;72.30;;;;;;5070046;28;20625;-53
2020/12/04 10:51:41;;;;;;;3.07;2.03;;;11.00;73.30;;;;;;5070035;28;20628;-54
2020/12/04 10:54:08;;;;;;;2.97;1.97;;;11.00;74.90;;;;;;5069357;28;21249;-54
2020/12/04 10:56:35;;;;;;;2.00;1.47;;;11.00;77.20;;;;;;5069313;28;21105;-53
2020/12/04 10:59:02;;;;;;;2.87;2.23;;;10.90;78.00;;;;;;5069636;28;21141;-54
2020/12/04 11:01:35;;;;;;;7.83;2.63;;;10.80;79.80;;;;;;5051369;28;20630;-55
2020/12/04 11:06:46;;;;;;;4.47;2.10;;;10.60;82.90;;;;;;5049853;28;20694;-52
2020/12/04 11:09:13;;;;;;;1.90;1.80;;;10.50;84.80;;;;;;5049576;28;21316;-51
2020/12/04 11:11:40;;;;;;;1.77;1.63;;;10.40;86.30;;;;;;5050423;28;20652;-52
2020/12/04 11:14:07;;;;;;;1.83;1.73;;;10.40;87.70;;;;;;5049666;28;20625;-51
2020/12/04 11:16:35;;;;;;;4.27;2.50;;;10.30;88.40;;;;;;5049787;28;20745;-51
2020/12/04 11:19:02;;;;;;;2.50;2.30;;;10.30;88.90;;;;;;5049588;28;20708;-51
2020/12/04 11:21:29;;;;;;;3.27;2.73;;;10.30;89.00;;;;;;5049608;28;21177;-50
2020/12/04 11:23:56;;;;;;;3.10;2.80;;;10.40;89.10;;;;;;5049898;28;20618;-52
2020/12/04 11:26:23;;;;;;;2.67;2.43;;;10.40;89.00;;;;;;5049343;28;20654;-54
2020/12/04 11:28:49;;;;;;;3.80;2.27;;;10.40;89.60;;;;;;5049516;28;20683;-52
2020/12/04 11:31:16;;;;;;;2.90;2.20;;;10.40;89.30;;;;;;5065718;28;20633;-54
2020/12/04 11:33:44;;;;;;;3.67;2.60;;;10.40;89.30;;;;;;5067929;28;21037;-54
2020/12/04 11:36:11;;;;;;;3.83;2.77;;;10.40;89.50;;;;;;5069072;28;20710;-54
2020/12/04 11:38:38;;;;;;;2.60;2.40;;;10.40;90.00;;;;;;5069504;28;20652;-52
2020/12/04 11:41:06;;;;;;;2.60;2.07;;;10.50;90.00;;;;;;5068944;28;20617;-54
2020/12/04 11:43:33;;;;;;;2.90;2.40;;;10.50;89.90;;;;;;5069282;28;20695;-54
2020/12/04 11:46:00;;;;;;;4.43;2.77;;;10.50;89.70;;;;;;5069193;28;20706;-52
2020/12/04 11:48:27;;;;;;;3.20;2.87;;;10.50;90.00;;;;;;5068853;28;20621;-54
2020/12/04 11:50:55;;;;;;;4.07;2.40;;;10.60;89.30;;;;;;5069070;28;20656;-53
2020/12/04 11:53:22;;;;;;;5.00;3.23;;;10.60;90.00;;;;;;5069336;28;20648;-51
2020/12/04 11:55:49;;;;;;;2.57;2.23;;;10.60;89.30;;;;;;5071083;28;20714;-53
2020/12/04 11:58:16;;;;;;;6.23;3.20;;;10.60;89.20;;;;;;5072748;28;20759;-51
2020/12/04 12:00:43;;;;;;;4.40;3.30;;;10.60;89.20;;;;;;5072794;28;20629;-53
2020/12/04 12:03:10;;;;;;;3.03;2.80;;;10.60;89.00;;;;;;5073043;28;20647;-50
2020/12/04 12:05:37;;;;;;;4.10;2.77;;;10.60;88.80;;;;;;5073408;28;21173;-52
2020/12/04 12:08:05;;;;;;;3.23;2.67;;;10.60;88.90;;;;;;5072855;28;20629;-53
2020/12/04 12:10:32;;;;;;;2.90;2.70;;;10.60;88.80;;;;;;5072912;28;20702;-53
2020/12/04 12:12:59;;;;;;;3.37;2.70;;;10.60;88.80;;;;;;5072203;28;20716;-54
2020/12/04 12:15:26;;;;;;;3.30;3.00;;;10.60;88.60;;;;;;5072686;28;21030;-54
2020/12/04 12:17:52;;;;;;;3.23;2.93;;;10.60;88.50;;;;;;5072552;28;20624;-50
2020/12/04 12:20:19;;;;;;;4.70;3.70;;;10.70;88.50;;;;;;5072356;28;20691;-52
2020/12/04 12:22:46;;;;;;;3.47;3.17;;;10.70;88.50;;;;;;5072743;28;21203;-51
2020/12/04 12:25:14;;;;;;;3.83;3.43;;;10.70;88.50;;;;;;5072035;28;20675;-50
2020/12/04 12:27:41;;;;;;;3.57;3.27;;;10.70;88.20;;;;;;5072133;28;21280;-50
2020/12/04 12:30:08;;;;;;;3.20;2.87;;;10.70;87.70;;;;;;5072129;28;21253;-50
2020/12/04 12:32:35;;;;;;;3.13;2.83;;;10.70;87.50;;;;;;5071787;28;20629;-52
2020/12/04 12:35:05;;;;;;;3.63;3.33;;;10.80;87.50;;;;;;5071000;28;20644;-53
2020/12/04 12:37:32;;;;;;;3.30;2.67;;;10.80;87.40;;;;;;5069181;28;21262;-52
2020/12/04 12:39:59;;;;;;;3.00;2.33;;;10.80;86.90;;;;;;5071560;28;20649;-51
2020/12/04 12:42:27;;;;;;;3.30;2.77;;;10.80;86.60;;;;;;5072159;28;20676;-52
2020/12/04 12:44:54;;;;;;;3.50;2.40;;;10.70;86.20;;;;;;5072083;28;20633;-50
2020/12/04 12:47:21;;;;;;;3.10;2.87;;;10.80;86.20;;;;;;5072437;28;20715;-51
2020/12/04 12:49:47;;;;;;;2.60;2.40;;;10.70;85.70;;;;;;5071867;28;21142;-51
2020/12/04 12:52:14;;;;;;;2.90;2.70;;;10.70;85.80;;;;;;5070609;28;20675;-50
2020/12/04 12:54:42;;;;;;;2.33;2.13;;;10.70;85.90;;;;;;5071791;28;21019;-51
2020/12/04 12:57:09;;;;;;;2.20;2.00;;;10.70;86.10;;;;;;5071869;28;20722;-51
2020/12/04 12:59:37;;;;;;;3.00;2.67;;;10.70;85.90;;;;;;5068555;28;20817;-50